In Rescue
 
Open Full Screen Window  High Contrast Mode
Wind Gusting 00 knots
03
November 28, 2020 12:23 AM EST
Present Weather: Fog
Weather Information
Wind Direction
  220 °
Wind Speed
  03 kt (3 mph)
Wind Gust
  00 kt (0 mph)
Altimeter
29.93 in
Visibility
1/4 SM
Temperature
02° C
36° F
Dewpoint
02° C
36° F
Humidity
100%
Sky Condition
Overcast @ 200 ft
LIFR

METAR KCDA 280523Z AUTO 22003KT 1/4SM FG OVC002 02/02 A2993 RMK AO2 T00200018

FAA Disclaimer: The data displayed is for advisory purposes only and is not to be used for flight planning or operations.